首页
METAR-TAF:

METAR-TAF

机场 :

Red Oak Municipal Airport

Red Oak, 艾奥瓦州, 美国

纬度: 41-01N, 经度: 095-16W, 海拔: 318米

当前天气观测

该预报发布于8分钟前的21:35 UTC
风速17节,风向
温度 -5°C
湿度 58%
气压 1027 hPa
能見度: 16.1公里
天空无云

METAR: KRDK 122135Z AUTO 19017KT 10SM CLR M05/M12 A3033 RMK AO2

时间: 15:43 (21:43 UTC)


TAF: 丢失

超过4000个机场的气象观测和天气预报(METAR&TAF报告)。

可查询的气象台以黄色和红色小点在地图上表示。

将鼠标移到小点上方,可查看气象台名称。

然后点击查看天气观测和预报。

如需切换地图:点击带黑十字的绿色按钮放大地图;点击带横线的绿色按钮缩小地图;或者点击绿色箭头查看邻近地区的地图。


METAR-TAF: